createdAt,value
2018-07-23T05:18:15.646Z,21
2018-07-23T05:18:35.798Z,21.1
2018-07-23T05:18:55.952Z,21
2018-07-23T05:19:16.118Z,21.1
2018-07-23T05:19:36.265Z,21
2018-07-23T05:19:56.424Z,21
2018-07-23T05:20:16.598Z,21
2018-07-23T05:20:36.751Z,21
2018-07-23T05:20:56.901Z,21
2018-07-23T05:21:17.053Z,21.1
2018-07-23T05:21:37.224Z,21
2018-07-23T05:21:57.419Z,21.1
2018-07-23T05:22:17.560Z,21.2
2018-07-23T05:22:37.717Z,21.1
2018-07-23T05:22:57.908Z,21.1
2018-07-23T05:23:18.072Z,21.2
2018-07-23T05:23:38.205Z,21.2
2018-07-23T05:23:58.401Z,21.1
2018-07-23T05:24:18.556Z,21.1
2018-07-23T05:24:38.839Z,21.1
2018-07-23T05:24:58.928Z,21.2
2018-07-23T05:25:19.084Z,21.1
2018-07-23T05:25:39.238Z,21.2
2018-07-23T05:25:59.377Z,21.2
2018-07-23T05:26:19.873Z,21.2
2018-07-23T05:26:39.939Z,21.1
2018-07-23T05:27:00.081Z,21.2
2018-07-23T05:27:20.227Z,21.2
2018-07-23T05:27:40.377Z,21.1
2018-07-23T05:28:00.527Z,21.1
2018-07-23T05:28:20.662Z,21.2
2018-07-23T05:28:40.824Z,21.2
2018-07-23T05:29:00.986Z,21.2
2018-07-23T05:29:21.117Z,21.3
2018-07-23T05:29:41.278Z,21.2
2018-07-23T05:30:01.439Z,21.3
2018-07-23T05:30:21.618Z,21.2
2018-07-23T05:30:41.801Z,21.2
2018-07-23T05:31:01.957Z,21.3
2018-07-23T05:31:22.101Z,21.3
2018-07-23T05:31:42.313Z,21.2
2018-07-23T05:32:02.409Z,21.2
2018-07-23T05:32:22.566Z,21.3
2018-07-23T05:32:42.717Z,21.3
2018-07-23T05:33:02.887Z,21.3
2018-07-23T05:33:23.022Z,21.3
2018-07-23T05:45:25.980Z,21.3
2018-07-23T05:45:46.142Z,21.3
2018-07-23T05:46:06.279Z,21.3
2018-07-23T05:46:26.431Z,21.3
2018-07-23T05:46:46.571Z,21.3
2018-07-23T05:47:06.742Z,21.3
2018-07-23T05:47:26.908Z,21.4
2018-07-23T05:47:47.080Z,21.4
2018-07-23T05:48:07.266Z,21.4
2018-07-23T05:48:27.424Z,21.4
2018-07-23T05:48:47.574Z,21.5
2018-07-23T05:49:07.725Z,21.4
2018-07-23T05:49:27.841Z,21.4
2018-07-23T05:49:47.974Z,21.4
2018-07-23T05:50:08.149Z,21.4
2018-07-23T05:50:28.303Z,21.4
2018-07-23T05:50:48.461Z,21.5
2018-07-23T05:51:08.615Z,21.5
2018-07-23T05:51:28.778Z,21.5
2018-07-23T05:51:48.932Z,21.5
2018-07-23T05:52:09.082Z,21.5
2018-07-23T05:52:29.245Z,21.6
2018-07-23T05:52:49.388Z,21.4
2018-07-23T05:53:09.543Z,21.4
2018-07-23T05:53:29.672Z,21.5
2018-07-23T05:53:49.837Z,21.5
2018-07-23T05:54:10.050Z,21.6
2018-07-23T05:54:30.206Z,21.5
2018-07-23T05:54:50.363Z,21.6
2018-07-23T05:55:10.537Z,21.6
2018-07-23T05:55:30.683Z,21.6
2018-07-23T05:55:50.860Z,21.7
2018-07-23T05:56:11.022Z,21.7
2018-07-23T05:56:31.205Z,21.6
2018-07-23T05:56:51.327Z,21.6
2018-07-23T05:57:11.483Z,21.7
2018-07-23T05:57:31.633Z,21.7
2018-07-23T05:57:51.799Z,21.7
2018-07-23T05:58:11.952Z,21.7
2018-07-23T05:58:32.119Z,21.7
2018-07-23T05:58:52.295Z,21.7
2018-07-23T05:59:12.409Z,21.7
2018-07-23T05:59:32.580Z,21.8
2018-07-23T05:59:52.731Z,21.7
2018-07-23T06:00:12.890Z,21.7
2018-07-23T06:00:33.040Z,21.8
2018-07-23T06:00:53.191Z,21.8
2018-07-23T06:01:13.350Z,21.8
2018-07-23T06:01:33.477Z,21.8
2018-07-23T06:01:53.637Z,21.9
2018-07-23T06:02:13.825Z,21.9
2018-07-23T06:02:34.050Z,21.8
2018-07-23T06:02:54.181Z,21.8
2018-07-23T06:03:14.341Z,21.9
2018-07-23T06:03:34.513Z,21.8
2018-07-23T06:03:54.791Z,21.9
2018-07-23T06:04:14.937Z,21.9
2018-07-23T06:04:35.087Z,22
2018-07-23T06:04:55.261Z,21.8
2018-07-23T06:05:15.419Z,21.9
2018-07-23T06:05:35.590Z,21.9
2018-07-23T06:05:55.747Z,21.8
2018-07-23T06:06:15.941Z,21.9
2018-07-23T06:06:36.204Z,21.9
2018-07-23T06:06:56.459Z,21.9
2018-07-23T06:07:16.976Z,22
2018-07-23T06:07:37.101Z,21.9
2018-07-23T06:07:57.250Z,21.9
2018-07-23T06:08:17.425Z,22
2018-07-23T06:08:37.591Z,22
2018-07-23T06:08:57.726Z,22
2018-07-23T06:09:17.889Z,22
2018-07-23T06:09:38.053Z,22
2018-07-23T06:09:58.195Z,22
2018-07-23T06:10:18.362Z,21.9
2018-07-23T06:10:38.522Z,22.1
2018-07-23T06:10:58.679Z,22.1
2018-07-23T06:11:18.843Z,22.1
2018-07-23T06:11:39.024Z,22.1
2018-07-23T06:11:59.178Z,22.1
2018-07-23T06:12:19.336Z,22
2018-07-23T06:12:39.535Z,22.1
2018-07-23T06:12:59.664Z,22.1
2018-07-23T06:13:19.823Z,22.1
2018-07-23T06:13:39.972Z,22.2
2018-07-23T06:14:00.126Z,22.1
2018-07-23T06:14:20.296Z,22.2
2018-07-23T06:14:40.412Z,22.2
2018-07-23T06:15:00.596Z,22.2
2018-07-23T06:15:20.728Z,22.3
2018-07-23T06:15:40.865Z,22.3
2018-07-23T06:16:01.026Z,22.2
2018-07-23T06:16:21.182Z,22.3
2018-07-23T06:16:41.344Z,22.3
2018-07-23T06:17:01.489Z,22.2
2018-07-23T06:17:21.678Z,22.2
2018-07-23T06:17:41.858Z,22.3
2018-07-23T06:18:02.031Z,22.4
2018-07-23T06:18:22.185Z,22.4
2018-07-23T06:18:42.360Z,22.4
2018-07-23T06:19:02.511Z,22.3
2018-07-23T06:19:22.681Z,22.4
2018-07-23T06:19:42.835Z,22.4
2018-07-23T06:20:02.998Z,22.4
2018-07-23T06:20:23.162Z,22.4
2018-07-23T06:20:43.309Z,22.4
2018-07-23T06:21:03.459Z,22.4
2018-07-23T06:21:23.627Z,22.5
2018-07-23T06:21:43.790Z,22.5
2018-07-23T06:22:03.965Z,22.5
2018-07-23T06:22:24.134Z,22.5
2018-07-23T06:22:44.242Z,22.5
2018-07-23T06:23:04.395Z,22.5
2018-07-23T06:23:24.545Z,22.5
2018-07-23T06:23:44.728Z,22.6
2018-07-23T06:24:04.904Z,22.6
2018-07-23T06:24:25.074Z,22.7
2018-07-23T06:24:45.229Z,22.7
2018-07-23T06:25:05.383Z,22.6
2018-07-23T06:25:25.559Z,22.7
2018-07-23T06:25:45.730Z,22.7
2018-07-23T06:26:05.852Z,22.7
2018-07-23T06:26:25.992Z,22.9
2018-07-23T06:26:46.139Z,22.8
2018-07-23T06:27:06.299Z,22.8
2018-07-23T06:27:26.482Z,22.8
2018-07-23T06:27:46.636Z,22.9
2018-07-23T06:28:06.834Z,22.9
2018-07-23T06:28:26.996Z,23
2018-07-23T06:28:47.149Z,22.9
2018-07-23T06:29:07.293Z,22.9
2018-07-23T06:29:27.465Z,23
2018-07-23T06:29:47.638Z,23
2018-07-23T06:30:07.841Z,23
2018-07-23T06:30:28.058Z,23.1
2018-07-23T06:30:48.180Z,23.1
2018-07-23T06:31:08.359Z,23.1
2018-07-23T06:31:28.528Z,23.2
2018-07-23T06:31:48.698Z,23.1
2018-07-23T06:32:08.854Z,23.2
2018-07-23T06:32:29.036Z,23.2
2018-07-23T06:32:49.206Z,23.2
2018-07-23T06:33:09.388Z,23.2
2018-07-23T06:33:29.535Z,23.2
2018-07-23T06:33:49.721Z,23.3
2018-07-23T06:34:09.930Z,23.2
2018-07-23T06:34:30.061Z,23.3
2018-07-23T06:34:50.229Z,23.3
2018-07-23T06:35:10.416Z,23.3
2018-07-23T06:35:30.573Z,23.3
2018-07-23T06:35:50.764Z,23.5
2018-07-23T06:36:10.907Z,23.4
2018-07-23T06:36:31.076Z,23.5
2018-07-23T06:36:51.255Z,23.4
2018-07-23T06:37:11.361Z,23.4
2018-07-23T06:37:31.540Z,23.4
2018-07-23T06:37:51.699Z,23.6
2018-07-23T06:38:11.854Z,23.5
2018-07-23T06:38:32.014Z,23.5
2018-07-23T06:38:52.149Z,23.5
2018-07-23T06:39:12.289Z,23.6
2018-07-23T06:39:32.439Z,23.5
2018-07-23T06:39:52.590Z,23.6
2018-07-23T06:40:12.748Z,23.7
2018-07-23T06:40:32.920Z,23.7
2018-07-23T06:40:53.092Z,23.7
2018-07-23T06:41:13.243Z,23.5
2018-07-23T06:41:33.381Z,23.5
2018-07-23T06:41:53.543Z,23.6
2018-07-23T06:42:13.719Z,23.6
2018-07-23T06:42:33.884Z,23.6
2018-07-23T06:42:54.064Z,23.6
2018-07-23T06:43:14.252Z,23.6
2018-07-23T06:43:34.386Z,23.7
2018-07-23T06:43:54.542Z,23.6
2018-07-23T06:44:14.698Z,23.7
2018-07-23T06:44:34.867Z,23.6
2018-07-23T06:44:55.029Z,23.7
2018-07-23T06:45:15.177Z,23.6
2018-07-23T06:45:35.331Z,23.7
2018-07-23T06:45:55.492Z,23.6
2018-07-23T06:46:15.662Z,23.7
2018-07-23T06:46:35.824Z,23.7
2018-07-23T06:46:55.968Z,23.7
2018-07-23T06:47:16.097Z,23.7
2018-07-23T06:47:36.235Z,23.7
2018-07-23T06:47:56.400Z,23.7
2018-07-23T06:48:16.537Z,23.7
2018-07-23T06:48:36.689Z,23.7
2018-07-23T06:48:56.928Z,23.8
2018-07-23T06:49:17.049Z,23.7
2018-07-23T06:49:37.214Z,23.7
2018-07-23T06:49:57.365Z,23.7
2018-07-23T06:50:17.537Z,23.8
2018-07-23T06:50:37.717Z,23.8
2018-07-23T06:50:57.894Z,23.8
2018-07-23T06:51:18.042Z,23.8
2018-07-23T06:51:38.181Z,23.8
2018-07-23T06:51:58.336Z,23.8
2018-07-23T06:52:18.507Z,23.8
2018-07-23T06:52:38.677Z,23.8
2018-07-23T06:52:58.829Z,23.8
2018-07-23T06:53:18.993Z,23.8
2018-07-23T06:53:39.175Z,23.8
2018-07-23T06:53:59.342Z,23.8
2018-07-23T06:54:19.483Z,23.9
2018-07-23T06:54:39.651Z,23.8
2018-07-23T06:54:59.786Z,23.8
2018-07-23T06:55:19.944Z,23.9
2018-07-23T06:55:40.096Z,23.9
2018-07-23T06:56:00.242Z,23.8
2018-07-23T06:56:20.403Z,23.8
2018-07-23T06:56:40.595Z,23.8
2018-07-23T06:57:00.824Z,23.8
2018-07-23T06:57:21.018Z,23.8
2018-07-23T06:57:41.130Z,23.8
2018-07-23T06:58:01.270Z,23.9
2018-07-23T06:58:21.418Z,23.9
2018-07-23T06:58:41.571Z,23.8
2018-07-23T06:59:01.809Z,23.9
2018-07-23T06:59:21.976Z,23.8
2018-07-23T06:59:42.132Z,23.8
2018-07-23T07:00:02.317Z,23.8
2018-07-23T07:00:22.443Z,23.8
2018-07-23T07:00:42.750Z,23.8
2018-07-23T07:01:02.848Z,23.8
2018-07-23T07:01:23.021Z,23.8
2018-07-23T07:01:43.190Z,23.9
2018-07-23T07:02:03.345Z,23.9
2018-07-23T07:02:23.515Z,23.8
2018-07-23T07:02:43.698Z,23.8
2018-07-23T07:03:03.858Z,23.8
2018-07-23T07:03:24.056Z,23.7
2018-07-23T07:03:44.174Z,23.8
2018-07-23T07:04:04.342Z,23.8
2018-07-23T07:04:24.498Z,23.8
2018-07-23T07:04:44.666Z,23.7
2018-07-23T07:05:04.833Z,23.7
2018-07-23T07:05:24.989Z,23.7
2018-07-23T07:05:45.176Z,23.7
2018-07-23T07:06:05.300Z,23.6
2018-07-23T07:06:25.527Z,23.6
2018-07-23T07:06:45.658Z,23.7
2018-07-23T07:07:05.816Z,23.7
2018-07-23T07:07:25.987Z,23.7
2018-07-23T07:07:46.155Z,23.6
2018-07-23T07:08:06.312Z,23.6
2018-07-23T07:08:26.480Z,23.6
2018-07-23T07:08:46.636Z,23.6
2018-07-23T07:09:06.804Z,23.6
2018-07-23T07:09:26.964Z,23.6
2018-07-23T07:09:47.124Z,23.6
2018-07-23T07:10:07.311Z,23.6
2018-07-23T07:10:27.476Z,23.6
2018-07-23T07:10:47.613Z,23.6
2018-07-23T07:11:07.784Z,23.6
2018-07-23T07:11:27.947Z,23.6
2018-07-23T07:11:48.153Z,23.6
2018-07-23T07:12:08.269Z,23.7
2018-07-23T07:12:28.455Z,23.6
2018-07-23T07:12:48.590Z,23.6
2018-07-23T07:13:08.773Z,23.6
2018-07-23T07:13:29.006Z,23.6
2018-07-23T07:13:49.322Z,23.7
2018-07-23T07:14:09.482Z,23.7
2018-07-23T07:14:29.641Z,23.6
2018-07-23T07:14:49.768Z,23.7
2018-07-23T07:15:09.939Z,23.6
2018-07-23T07:15:30.085Z,23.6
2018-07-23T07:15:50.243Z,23.6
2018-07-23T07:16:10.398Z,23.7
2018-07-23T07:16:30.576Z,23.7
2018-07-23T07:16:50.719Z,23.7
2018-07-23T07:17:10.875Z,23.7
2018-07-23T07:17:31.033Z,23.7
2018-07-23T07:17:51.189Z,23.7
2018-07-23T07:18:11.348Z,23.7
2018-07-23T07:18:31.492Z,23.7
2018-07-23T07:18:51.622Z,23.7
2018-07-23T07:19:11.797Z,23.7
2018-07-23T07:19:31.950Z,23.7
2018-07-23T07:19:52.149Z,23.7
2018-07-23T07:20:12.281Z,23.7
2018-07-23T07:20:32.436Z,23.7
2018-07-23T07:20:52.609Z,23.7
2018-07-23T07:21:12.766Z,23.7
2018-07-23T07:21:32.924Z,23.7
2018-07-23T07:21:53.081Z,23.7
2018-07-23T07:22:13.234Z,23.8
2018-07-23T07:22:33.378Z,23.7
2018-07-23T07:22:53.539Z,23.8
2018-07-23T07:23:13.686Z,23.8
2018-07-23T07:23:33.823Z,23.8
2018-07-23T07:23:53.973Z,23.9
2018-07-23T07:24:14.105Z,23.8
2018-07-23T07:24:34.241Z,23.8
2018-07-23T07:24:54.370Z,23.8
2018-07-23T07:25:14.534Z,23.8
2018-07-23T07:25:34.689Z,23.8
2018-07-23T07:25:54.854Z,23.9
2018-07-23T07:26:14.990Z,23.9
2018-07-23T07:26:35.167Z,23.9
2018-07-23T07:26:55.297Z,23.9
2018-07-23T07:27:15.470Z,23.9
2018-07-23T07:27:35.614Z,23.8
2018-07-23T07:27:55.798Z,23.8
2018-07-23T07:28:15.959Z,23.9
2018-07-23T07:28:36.110Z,23.8
2018-07-23T07:28:56.274Z,23.8
2018-07-23T07:29:16.426Z,23.8
2018-07-23T07:29:36.594Z,23.9
2018-07-23T07:29:56.757Z,23.8
2018-07-23T07:30:16.913Z,23.9
2018-07-23T07:30:37.054Z,24
2018-07-23T07:30:57.223Z,23.9
2018-07-23T07:31:17.374Z,23.9
2018-07-23T07:31:37.527Z,23.9
2018-07-23T07:31:57.683Z,23.9
2018-07-23T07:32:17.890Z,23.8
2018-07-23T07:32:38.051Z,23.9
2018-07-23T07:32:58.214Z,24
2018-07-23T07:33:18.375Z,23.9
2018-07-23T07:33:38.539Z,24.1
2018-07-23T07:33:58.696Z,23.9
2018-07-23T07:34:18.862Z,23.9
2018-07-23T07:34:39.019Z,23.9
2018-07-23T07:34:59.208Z,24.1
2018-07-23T07:35:19.357Z,24
2018-07-23T07:35:39.496Z,24.1
2018-07-23T07:35:59.712Z,24.1
2018-07-23T07:36:19.873Z,24.1
2018-07-23T07:36:40.032Z,24.1
2018-07-23T07:37:00.194Z,24.1
2018-07-23T07:37:20.375Z,24.1
2018-07-23T07:37:40.541Z,24.1
2018-07-23T07:38:00.803Z,24.1
2018-07-23T07:38:20.854Z,24.2
2018-07-23T07:38:41.001Z,24.2
2018-07-23T07:39:01.162Z,24.2
2018-07-23T07:39:21.293Z,24.2
2018-07-23T07:39:41.443Z,24.2
2018-07-23T07:40:01.639Z,24.2
2018-07-23T07:40:21.789Z,24.2
2018-07-23T07:40:41.929Z,24.2
2018-07-23T07:41:02.069Z,24.2
2018-07-23T07:41:22.249Z,24.2
2018-07-23T07:41:42.402Z,24.2
2018-07-23T07:42:02.550Z,24.2
2018-07-23T07:42:22.704Z,24.3
2018-07-23T07:42:42.859Z,24.2
2018-07-23T07:43:02.995Z,24.2
2018-07-23T07:43:23.207Z,24.4
2018-07-23T07:43:43.326Z,24.3
2018-07-23T07:44:03.466Z,24.2
2018-07-23T07:44:23.618Z,24.3
2018-07-23T07:44:43.797Z,24.4
2018-07-23T07:45:03.960Z,24.4
2018-07-23T07:45:24.108Z,24.4
2018-07-23T07:45:44.294Z,24.4
2018-07-23T07:46:04.447Z,24.4
2018-07-23T07:46:24.681Z,24.5
2018-07-23T07:46:44.840Z,24.4
2018-07-23T07:47:04.986Z,24.4
2018-07-23T07:47:25.141Z,24.4
2018-07-23T07:47:45.298Z,24.4
2018-07-23T07:48:05.466Z,24.4
2018-07-23T07:48:25.591Z,24.5
2018-07-23T07:48:45.750Z,24.5
2018-07-23T07:49:05.918Z,24.4
2018-07-23T07:49:26.061Z,24.4
2018-07-23T07:49:46.241Z,24.5
2018-07-23T07:50:06.414Z,24.4
2018-07-23T07:50:26.573Z,24.4
2018-07-23T07:50:46.698Z,24.4
2018-07-23T07:51:06.844Z,24.4
2018-07-23T07:51:27.011Z,24.5
2018-07-23T07:51:47.176Z,24.5
2018-07-23T07:52:07.346Z,24.5
2018-07-23T07:52:27.516Z,24.4
2018-07-23T07:52:47.745Z,24.4
2018-07-23T07:53:07.906Z,24.4
2018-07-23T07:53:28.057Z,24.5
2018-07-23T07:53:48.185Z,24.5
2018-07-23T07:54:08.305Z,24.5
2018-07-23T07:54:28.447Z,24.5
2018-07-23T07:54:48.618Z,24.6
2018-07-23T07:55:08.773Z,24.5
2018-07-23T07:55:28.927Z,24.6
2018-07-23T07:55:49.096Z,24.6
2018-07-23T07:56:09.263Z,24.6
2018-07-23T07:56:29.424Z,24.5
2018-07-23T07:56:49.570Z,24.5
2018-07-23T07:57:09.716Z,24.6
2018-07-23T07:57:29.882Z,24.5
2018-07-23T07:57:50.050Z,24.5
2018-07-23T07:58:10.211Z,24.5
2018-07-23T07:58:30.350Z,24.5
2018-07-23T07:58:50.537Z,24.4
2018-07-23T07:59:10.670Z,24.5
2018-07-23T07:59:30.809Z,24.5
2018-07-23T07:59:50.966Z,24.4
2018-07-23T08:00:11.125Z,24.4
2018-07-23T08:00:31.268Z,24.4
2018-07-23T08:00:51.424Z,24.4
2018-07-23T08:01:11.591Z,24.4
2018-07-23T08:01:31.775Z,24.3
2018-07-23T08:01:51.963Z,24.4
2018-07-23T08:02:12.142Z,24.5
2018-07-23T08:02:32.310Z,24.4
2018-07-23T08:02:52.471Z,24.5
2018-07-23T08:03:12.664Z,24.5
2018-07-23T08:03:32.812Z,24.5
2018-07-23T08:03:52.967Z,24.5
2018-07-23T08:04:13.120Z,24.5
2018-07-23T08:04:33.266Z,24.5
2018-07-23T08:04:53.431Z,24.5
2018-07-23T08:05:13.581Z,24.6
2018-07-23T08:05:33.740Z,24.6
2018-07-23T08:05:53.895Z,24.6
2018-07-23T08:06:14.037Z,24.5
2018-07-23T08:06:34.189Z,24.6
2018-07-23T08:06:54.347Z,24.6
2018-07-23T08:07:14.695Z,24.7
2018-07-23T08:07:34.743Z,24.6
2018-07-23T08:07:54.888Z,24.6
2018-07-23T08:08:15.044Z,24.7
2018-07-23T08:08:35.201Z,24.7
2018-07-23T08:08:55.352Z,24.7
2018-07-23T08:09:15.523Z,24.7
2018-07-23T08:09:35.702Z,24.8
2018-07-23T08:09:55.871Z,24.7
2018-07-23T08:10:16.030Z,24.7
2018-07-23T08:10:36.192Z,24.7
2018-07-23T08:10:56.359Z,24.8
2018-07-23T08:11:16.496Z,24.8
2018-07-23T08:11:36.653Z,24.8
2018-07-23T08:11:56.794Z,24.8
2018-07-23T08:12:16.961Z,24.8
2018-07-23T08:12:37.139Z,24.8
2018-07-23T08:12:57.264Z,24.8
2018-07-23T08:13:17.461Z,24.8
2018-07-23T08:13:37.590Z,24.9
2018-07-23T08:13:57.668Z,24.8
2018-07-23T08:14:17.879Z,24.8
2018-07-23T08:14:38.019Z,24.7
2018-07-23T08:14:58.214Z,24.8
2018-07-23T08:15:18.362Z,24.8
2018-07-23T08:15:38.506Z,24.9
2018-07-23T08:15:58.699Z,24.9
2018-07-23T08:16:18.827Z,24.9
2018-07-23T08:16:38.982Z,24.8
2018-07-23T08:16:59.131Z,24.8
2018-07-23T08:17:19.282Z,24.8
2018-07-23T08:17:39.459Z,24.8
2018-07-23T08:17:59.890Z,24.8
2018-07-23T08:18:20.048Z,24.8
2018-07-23T08:18:40.199Z,24.9
2018-07-23T08:19:00.368Z,24.9
2018-07-23T08:19:20.533Z,24.9
2018-07-23T08:19:40.688Z,24.9
2018-07-23T08:20:00.846Z,24.9
2018-07-23T08:20:20.979Z,25
2018-07-23T08:20:41.168Z,25
2018-07-23T08:21:01.334Z,24.9
2018-07-23T08:21:21.501Z,24.9
2018-07-23T08:21:41.640Z,25
2018-07-23T08:22:01.769Z,25
2018-07-23T08:22:21.942Z,25
2018-07-23T08:22:42.091Z,25
2018-07-23T08:23:02.265Z,25.1
2018-07-23T08:23:22.416Z,25
2018-07-23T08:23:42.556Z,25.1
2018-07-23T08:24:02.722Z,25.1
2018-07-23T08:24:22.898Z,25.1
2018-07-23T08:24:43.082Z,25.1
2018-07-23T08:25:03.295Z,25.1
2018-07-23T08:25:23.395Z,25
2018-07-23T08:25:43.546Z,25.1
2018-07-23T08:26:03.706Z,25.1
2018-07-23T08:26:23.890Z,25
2018-07-23T08:26:44.041Z,25.1
2018-07-23T08:27:04.211Z,25.2
2018-07-23T08:27:24.371Z,25.2
2018-07-23T08:27:44.578Z,25.2
2018-07-23T08:28:04.743Z,25.2
2018-07-23T08:28:24.894Z,25.2
2018-07-23T08:28:45.044Z,25.2
2018-07-23T08:29:05.208Z,25.3
2018-07-23T08:29:25.339Z,25.3
2018-07-23T08:29:45.501Z,25.2
2018-07-23T08:30:05.704Z,25.3
2018-07-23T08:30:25.863Z,25.3
2018-07-23T08:30:46.044Z,25.4
2018-07-23T08:31:06.211Z,25.4
2018-07-23T08:31:26.339Z,25.3
2018-07-23T08:31:46.586Z,25.5
2018-07-23T08:32:06.718Z,25.4
2018-07-23T08:32:26.898Z,25.4
2018-07-23T08:32:47.029Z,25.4
2018-07-23T08:33:07.164Z,25.4
2018-07-23T08:33:27.313Z,25.5
2018-07-23T08:33:47.467Z,25.5
2018-07-23T08:34:07.621Z,25.4
2018-07-23T08:34:27.762Z,25.5
2018-07-23T08:34:47.896Z,25.5
2018-07-23T08:35:08.077Z,25.5
2018-07-23T08:35:28.198Z,25.5
2018-07-23T08:35:48.349Z,25.4
2018-07-23T08:36:08.512Z,25.6
2018-07-23T08:36:28.645Z,25.4
2018-07-23T08:36:48.830Z,25.5
2018-07-23T08:37:08.995Z,25.5
2018-07-23T08:37:29.155Z,25.5
2018-07-23T08:37:49.295Z,25.5
2018-07-23T08:38:09.467Z,25.6
2018-07-23T08:38:29.630Z,25.6
2018-07-23T08:38:49.826Z,25.6
2018-07-23T08:39:09.998Z,25.6
2018-07-23T08:39:30.147Z,25.6
2018-07-23T08:39:50.290Z,25.6
2018-07-23T08:40:10.442Z,25.6
2018-07-23T08:40:30.630Z,25.6
2018-07-23T08:40:50.834Z,25.6
2018-07-23T08:41:11.036Z,25.7
2018-07-23T08:41:31.191Z,25.7
2018-07-23T08:41:51.317Z,25.7
2018-07-23T08:42:11.462Z,25.7
2018-07-23T08:42:31.617Z,25.7
2018-07-23T08:42:51.741Z,25.8
2018-07-23T08:43:11.933Z,25.8
2018-07-23T08:43:32.064Z,25.8
2018-07-23T08:43:52.213Z,25.9
2018-07-23T08:44:12.410Z,25.9
2018-07-23T08:44:32.554Z,25.9
2018-07-23T08:44:52.744Z,25.8
2018-07-23T08:45:12.917Z,25.9
2018-07-23T08:45:33.062Z,26
2018-07-23T08:45:53.290Z,26
2018-07-23T08:46:13.446Z,26
2018-07-23T08:46:33.583Z,26
2018-07-23T08:46:53.749Z,26
2018-07-23T08:47:13.931Z,25.9
2018-07-23T08:47:34.096Z,26
2018-07-23T08:47:54.249Z,26
2018-07-23T08:48:14.414Z,26.1
2018-07-23T08:48:34.655Z,26
2018-07-23T08:48:54.825Z,26.1
2018-07-23T08:49:14.969Z,26.1
2018-07-23T08:49:35.125Z,26.2
2018-07-23T08:49:55.295Z,26.1
2018-07-23T08:50:15.449Z,26.1
2018-07-23T08:50:35.611Z,26.2
2018-07-23T08:50:55.749Z,26.2
2018-07-23T08:51:16.021Z,26.2
2018-07-23T08:51:36.133Z,26.3
2018-07-23T08:51:56.289Z,26.3
2018-07-23T08:52:16.483Z,26.3
2018-07-23T08:52:36.652Z,26.3
2018-07-23T08:52:56.804Z,26.3
2018-07-23T08:53:16.939Z,26.3
2018-07-23T08:53:37.092Z,26.3
2018-07-23T08:53:57.237Z,26.3
2018-07-23T08:54:17.404Z,26.4
2018-07-23T08:54:37.572Z,26.4
2018-07-23T08:54:57.720Z,26.4
2018-07-23T08:55:17.859Z,26.4
2018-07-23T08:55:38.025Z,26.4
2018-07-23T08:55:58.188Z,26.4
2018-07-23T08:56:18.349Z,26.4
2018-07-23T08:56:38.512Z,26.5
2018-07-23T08:56:58.695Z,26.5
2018-07-23T08:57:18.894Z,26.5
2018-07-23T08:57:39.190Z,26.5
2018-07-23T08:57:59.362Z,26.5
2018-07-23T08:58:19.535Z,26.5
2018-07-23T08:58:39.694Z,26.6
2018-07-23T08:58:59.854Z,26.6
2018-07-23T08:59:20.015Z,26.6
2018-07-23T08:59:40.176Z,26.6
2018-07-23T09:00:00.324Z,26.5
2018-07-23T09:00:20.480Z,26.7
2018-07-23T09:00:40.637Z,26.6
2018-07-23T09:01:00.773Z,26.7
2018-07-23T09:01:20.928Z,26.5
2018-07-23T09:01:41.068Z,26.5
2018-07-23T09:02:01.227Z,26.5
2018-07-23T09:02:21.447Z,26.5
2018-07-23T09:02:41.543Z,26.5
2018-07-23T09:03:01.696Z,26.5
2018-07-23T09:03:21.862Z,26.5
2018-07-23T09:03:42.028Z,26.5
2018-07-23T09:04:02.229Z,26.5
2018-07-23T09:04:22.370Z,26.5
2018-07-23T09:04:42.513Z,26.5
2018-07-23T09:05:02.652Z,26.6
2018-07-23T09:05:23.667Z,26.6
2018-07-23T09:05:44.060Z,26.7
2018-07-23T09:06:04.187Z,26.6
2018-07-23T09:06:24.343Z,26.7
2018-07-23T09:06:44.505Z,26.7
2018-07-23T09:07:04.661Z,26.7
2018-07-23T09:07:24.829Z,26.7
2018-07-23T09:07:44.982Z,26.7
2018-07-23T09:08:05.136Z,26.7
2018-07-23T09:08:25.305Z,26.7
2018-07-23T09:08:45.584Z,26.7
2018-07-23T09:09:05.765Z,26.7
2018-07-23T09:09:25.975Z,26.7
2018-07-23T09:09:46.129Z,26.8
2018-07-23T09:10:06.274Z,26.7
2018-07-23T09:10:26.466Z,26.7
2018-07-23T09:10:46.601Z,26.8
2018-07-23T09:11:06.731Z,26.8
2018-07-23T09:11:26.891Z,26.7
2018-07-23T09:11:47.043Z,26.8
2018-07-23T09:12:07.171Z,26.8
2018-07-23T09:12:27.358Z,26.7
2018-07-23T09:12:47.506Z,26.8
2018-07-23T09:13:08.585Z,26.7
2018-07-23T09:13:28.732Z,26.7
2018-07-23T09:13:48.917Z,26.8
2018-07-23T09:14:09.090Z,26.8
2018-07-23T09:14:29.296Z,26.8
2018-07-23T09:14:49.410Z,26.8
2018-07-23T09:15:09.583Z,26.8
2018-07-23T09:15:29.744Z,26.8
2018-07-23T09:15:49.912Z,26.8
2018-07-23T09:16:10.071Z,26.8
2018-07-23T09:16:30.218Z,26.9
2018-07-23T09:16:50.376Z,26.8
2018-07-23T09:17:10.552Z,26.8
2018-07-23T09:17:30.753Z,26.9
2018-07-23T09:17:50.894Z,26.9
2018-07-23T09:18:11.035Z,26.9
2018-07-23T09:18:31.197Z,26.8
2018-07-23T09:18:51.385Z,26.8
2018-07-23T09:19:11.562Z,26.8
2018-07-23T09:19:31.727Z,26.9
2018-07-23T09:19:51.891Z,26.8
2018-07-23T09:20:12.056Z,26.8
2018-07-23T09:20:32.218Z,26.8
2018-07-23T09:20:52.373Z,26.8
2018-07-23T09:21:12.538Z,26.9
2018-07-23T09:21:32.732Z,27
2018-07-23T09:21:52.901Z,26.9
2018-07-23T09:22:13.092Z,26.9
2018-07-23T09:22:33.249Z,27
2018-07-23T09:22:53.407Z,26.9
2018-07-23T09:23:13.560Z,26.9
2018-07-23T09:23:33.713Z,27
2018-07-23T09:23:53.953Z,27.1
2018-07-23T09:24:14.072Z,27.1
2018-07-23T09:24:34.227Z,27.1
2018-07-23T09:24:54.408Z,27.1
2018-07-23T09:25:14.568Z,27.1
2018-07-23T09:25:34.723Z,27.1
2018-07-23T09:25:54.952Z,27.2
2018-07-23T09:26:15.104Z,27.3
2018-07-23T09:26:35.263Z,27.2
2018-07-23T09:26:55.422Z,27.2
2018-07-23T09:27:15.596Z,27.2
2018-07-23T09:27:35.762Z,27.1
2018-07-23T09:27:55.975Z,27.2
2018-07-23T09:28:16.108Z,27.3
2018-07-23T09:28:36.225Z,27.3
2018-07-23T09:28:56.374Z,27.2
2018-07-23T09:29:16.545Z,27.3
2018-07-23T09:29:36.697Z,27.2
2018-07-23T09:29:56.867Z,27.4
2018-07-23T09:30:17.059Z,27.3
2018-07-23T09:30:37.188Z,27.3
2018-07-23T09:30:57.347Z,27.4
2018-07-23T09:31:17.498Z,27.4
2018-07-23T09:31:37.669Z,27.4
2018-07-23T09:31:57.839Z,27.5
2018-07-23T09:32:18.004Z,27.5
2018-07-23T09:32:38.161Z,27.5
2018-07-23T09:32:58.322Z,27.4
2018-07-23T09:33:18.444Z,27.5
2018-07-23T09:33:38.641Z,27.6
2018-07-23T09:33:58.797Z,27.6
2018-07-23T09:34:18.969Z,27.6
2018-07-23T09:34:39.142Z,27.6
2018-07-23T09:34:59.271Z,27.7
2018-07-23T09:35:19.447Z,27.7
2018-07-23T09:35:39.590Z,27.6
2018-07-23T09:35:59.756Z,27.5
2018-07-23T09:36:19.943Z,27.5
2018-07-23T09:36:40.101Z,27.6
2018-07-23T09:37:00.268Z,27.5
2018-07-23T09:37:20.512Z,27.6
2018-07-23T09:37:40.669Z,27.6
2018-07-23T09:38:00.824Z,27.6
2018-07-23T09:38:21.054Z,27.6
2018-07-23T09:38:41.153Z,27.7
2018-07-23T09:39:01.319Z,27.6
2018-07-23T09:39:21.478Z,27.6
2018-07-23T09:39:41.641Z,27.7
2018-07-23T09:40:01.795Z,27.7
2018-07-23T09:40:21.956Z,27.7
2018-07-23T09:40:42.108Z,27.8
2018-07-23T09:41:02.260Z,27.7
2018-07-23T09:41:22.427Z,27.8
2018-07-23T09:41:42.612Z,27.8
2018-07-23T09:42:02.777Z,27.8
2018-07-23T09:42:22.929Z,27.8
2018-07-23T09:42:43.067Z,27.8
2018-07-23T09:43:03.234Z,27.6
2018-07-23T09:43:23.442Z,27.7
2018-07-23T09:43:43.589Z,27.6
2018-07-23T09:44:03.760Z,27.6
2018-07-23T09:44:23.895Z,27.6
2018-07-23T09:44:44.041Z,27.6
2018-07-23T09:45:04.193Z,27.5
2018-07-23T09:45:24.359Z,27.5
2018-07-23T09:45:44.561Z,27.5
2018-07-23T09:46:04.707Z,27.5
2018-07-23T09:46:24.839Z,27.4
2018-07-23T09:46:44.993Z,27.5
2018-07-23T09:47:05.147Z,27.5
2018-07-23T09:47:25.296Z,27.5
2018-07-23T09:47:45.451Z,27.5
2018-07-23T09:48:05.601Z,27.6
2018-07-23T09:48:25.767Z,27.5
2018-07-23T09:48:45.943Z,27.6
2018-07-23T09:49:06.093Z,27.6
2018-07-23T09:49:26.248Z,27.6
2018-07-23T09:49:46.399Z,27.6
2018-07-23T09:50:06.556Z,27.7
2018-07-23T09:50:26.707Z,27.6
2018-07-23T09:50:46.867Z,27.7
2018-07-23T09:51:07.004Z,27.6
2018-07-23T09:51:27.129Z,27.6
2018-07-23T09:51:47.347Z,27.6
2018-07-23T09:52:07.518Z,27.7
2018-07-23T09:52:27.656Z,27.7
2018-07-23T09:52:47.873Z,27.7
2018-07-23T09:53:07.966Z,27.6
2018-07-23T09:53:28.132Z,27.7
2018-07-23T09:53:48.299Z,27.6
2018-07-23T09:54:08.465Z,27.7
2018-07-23T09:54:28.626Z,27.7
2018-07-23T09:54:48.791Z,27.6
2018-07-23T09:55:08.957Z,27.6
2018-07-23T09:55:29.124Z,27.7
2018-07-23T09:55:49.275Z,27.8
2018-07-23T09:56:09.401Z,27.8
2018-07-23T09:56:29.585Z,27.8
2018-07-23T09:56:49.737Z,27.8
2018-07-23T09:57:09.901Z,27.8
2018-07-23T09:57:30.021Z,27.9
2018-07-23T09:57:50.555Z,27.8
2018-07-23T09:58:10.744Z,27.8
2018-07-23T09:58:30.913Z,27.8
2018-07-23T09:58:51.088Z,27.8
2018-07-23T09:59:11.246Z,27.9